FW0633 Weather Reports


Display with metric or nautical units.
time (UTC)temp
F
wind
direction
speed
MPH
gust
MPH
rain 1hr
in
rain 24hr
in
rain mn
in
humidity
%
barometer
mb
20240530031803 69 273 0.0 1.0 0.00 0.00 0.00 22 1036.1
20240530030903 70 243 0.0 1.0 0.00 0.00 0.00 22 1036.0
20240530030003 71 226 0.0 1.0 0.00 0.00 0.00 20 1036.0
20240530025403 72 219 0.0 1.0 0.00 0.00 0.00 20 1036.0
20240530024524 73 229 0.0 2.0 0.00 0.00 0.00 19 1036.0
20240530023603 74 221 1.0 3.0 0.00 0.00 0.00 18 1035.9
20240530022703 75 224 0.0 3.0 0.00 0.00 0.00 18 1035.9
20240530021803 76 226 1.0 4.0 0.00 0.00 0.00 17 1035.8
20240530020924 76 239 1.0 5.0 0.00 0.00 0.00 16 1035.7
20240530020003 77 238 1.0 4.0 0.00 0.00 0.00 16 1035.7
20240530015424 77 242 1.0 6.0 0.00 0.00 0.00 15 1035.6
20240530014503 78 251 2.0 9.0 0.00 0.00 0.00 15 1035.6
20240530013624 79 235 2.0 10.0 0.00 0.00 0.00 15 1035.6
20240530012703 79 221 3.0 10.0 0.00 0.00 0.00 15 1035.5
20240530011803 80 203 3.0 8.0 0.00 0.00 0.00 14 1035.4
20240530010903 82 233 3.0 10.0 0.00 0.00 0.00 14 1035.4
20240530010003 82 219 3.0 10.0 0.00 0.00 0.00 13 1035.4
20240530005403 82 228 3.0 10.0 0.00 0.00 0.00 14 1035.5
20240530004503 82 214 3.0 7.0 0.00 0.00 0.00 14 1035.5
20240530003624 83 229 3.0 8.0 0.00 0.00 0.00 14 1035.4
20240530002703 83 218 2.0 6.0 0.00 0.00 0.00 13 1035.4
20240530001803 83 224 3.0 10.0 0.00 0.00 0.00 14 1035.6
20240530000903 83 240 3.0 9.0 0.00 0.00 0.00 13 1035.7
20240530000003 83 235 4.0 12.0 0.00 0.00 0.00 13 1035.6
20240529235403 83 248 3.0 9.0 0.00 0.00 0.00 15 1035.7
20240529234503 83 221 3.0 10.0 0.00 0.00 0.00 13 1035.8
20240529233603 83 233 4.0 12.0 0.00 0.00 0.00 12 1035.8
20240529232724 84 232 3.0 7.0 0.00 0.00 0.00 12 1035.8
20240529231824 84 227 3.0 6.0 0.00 0.00 0.00 12 1035.9
20240529230924 84 226 3.0 6.0 0.00 0.00 0.00 12 1035.9
20240529230003 85 228 3.0 7.0 0.00 0.00 0.00 13 1036.0
20240529225403 84 222 4.0 11.0 0.00 0.00 0.00 13 1036.0
20240529224524 85 236 3.0 7.0 0.00 0.00 0.00 12 1036.1
20240529223603 84 226 4.0 11.0 0.00 0.00 0.00 12 1036.0
20240529222703 85 235 3.0 8.0 0.00 0.00 0.00 12 1036.0
20240529221803 84 245 3.0 10.0 0.00 0.00 0.00 12 1036.2
20240529220903 85 241 3.0 8.0 0.00 0.00 0.00 12 1036.2
20240529220024 85 243 3.0 9.0 0.00 0.00 0.00 12 1036.3
20240529215403 85 256 3.0 9.0 0.00 0.00 0.00 12 1036.2
20240529214524 85 257 3.0 8.0 0.00 0.00 0.00 12 1036.5
20240529213603 85 255 3.0 9.0 0.00 0.00 0.00 12 1036.5
20240529212703 84 253 4.0 11.0 0.00 0.00 0.00 12 1036.4
20240529211803 86 239 3.0 11.0 0.00 0.00 0.00 12 1036.5
20240529063603 62 244 0.0 1.0 0.00 0.00 0.00 29 1037.3
20240529062703 62 252 0.0 1.0 0.00 0.00 0.00 29 1037.4
20240529061803 62 264 0.0 1.0 0.00 0.00 0.00 29 1037.4
20240529060924 63 283 0.0 2.0 0.00 0.00 0.00 28 1037.3
20240529060003 64 277 0.0 1.0 0.00 0.00 0.00 27 1037.4
20240529055424 64 266 0.0 1.0 0.00 0.00 0.00 27 1037.4
20240529054503 64 238 0.0 1.0 0.00 0.00 0.00 26 1037.4
20240529053603 65 242 0.0 2.0 0.00 0.00 0.00 25 1037.5
20240529052724 65 238 0.0 2.0 0.00 0.00 0.00 25 1037.5
20240529051803 65 260 0.0 2.0 0.00 0.00 0.00 25 1037.4
20240529050924 65 237 0.0 1.0 0.00 0.00 0.00 24 1037.6
20240529050003 66 227 0.0 1.0 0.00 0.00 0.00 24 1037.6
20240529045403 66 231 0.0 1.0 0.00 0.00 0.00 23 1037.6
20240529044503 67 275 0.0 3.0 0.00 0.00 0.00 23 1037.5
20240529043603 67 274 1.0 3.0 0.00 0.00 0.00 22 1037.4
20240529042703 68 268 0.0 1.0 0.00 0.00 0.00 22 1037.3
20240529041803 67 270 0.0 1.0 0.00 0.00 0.00 23 1037.3
20240529040903 68 244 0.0 1.0 0.00 0.00 0.00 22 1037.1
20240529040003 68 252 0.0 1.0 0.00 0.00 0.00 22 1037.1
20240529035403 69 282 0.0 1.0 0.00 0.00 0.00 21 1037.1
20240529035010 70 281 0.0 1.0 0.00 0.00 0.00 21 1037.0